Time;durP1;ratioP1;P1;durP2;ratioP2;P2;SDS_P1;SDS_P2;PMS_P1;PMS_P2;Temp;Humidity;BMP_temperature;BMP_pressure;BME280_temperature;BME280_humidity;BME280_pressure;Samples;Min_cycle;Max_cycle;Signal;HPM_P1;HPM_P2
2023/06/26 00:02:00;;;;;;;8.55;6.13;;;21.90;99.90;;;;;;4998444;28;20024;-73
2023/06/26 00:04:26;;;;;;;8.15;6.15;;;21.90;99.90;;;;;;4998763;28;20027;-73
2023/06/26 00:06:52;;;;;;;7.45;5.40;;;21.80;99.90;;;;;;4998359;28;20029;-73
2023/06/26 00:09:17;;;;;;;8.27;5.80;;;21.70;99.90;;;;;;4998433;28;20061;-73
2023/06/26 00:11:43;;;;;;;9.60;6.15;;;21.70;99.90;;;;;;4998417;28;20022;-74
2023/06/26 00:14:08;;;;;;;10.18;5.85;;;21.70;99.90;;;;;;5014554;28;20045;-73
2023/06/26 00:16:34;;;;;;;9.27;6.07;;;21.60;99.90;;;;;;5013913;28;20061;-73
2023/06/26 00:19:00;;;;;;;11.07;6.43;;;21.50;99.90;;;;;;5014788;28;20029;-73
2023/06/26 00:21:30;;;;;;;8.63;6.32;;;21.50;99.90;;;;;;5014767;28;20026;-73
2023/06/26 00:23:56;;;;;;;7.88;6.15;;;21.60;99.90;;;;;;5014862;28;20027;-74
2023/06/26 00:26:21;;;;;;;8.02;5.80;;;21.60;99.90;;;;;;5015177;28;20029;-73
2023/06/26 00:28:47;;;;;;;8.68;5.50;;;21.60;99.90;;;;;;5012987;28;20081;-74
2023/06/26 00:31:13;;;;;;;8.45;5.95;;;21.60;99.90;;;;;;5017722;28;20144;-74
2023/06/26 00:33:39;;;;;;;12.95;6.53;;;21.40;99.90;;;;;;5018602;28;20053;-74
2023/06/26 00:36:05;;;;;;;10.65;6.80;;;21.30;99.90;;;;;;5017437;28;20032;-73
2023/06/26 00:38:30;;;;;;;9.27;6.28;;;21.30;99.90;;;;;;5018289;28;20025;-73
2023/06/26 00:40:56;;;;;;;9.68;5.90;;;21.20;99.90;;;;;;5018454;28;20034;-73
2023/06/26 00:43:21;;;;;;;8.88;5.78;;;21.20;99.90;;;;;;5017245;28;20026;-73
2023/06/26 00:45:47;;;;;;;9.95;5.70;;;21.20;99.90;;;;;;5018487;28;20025;-73
2023/06/26 00:48:13;;;;;;;13.63;6.38;;;21.30;99.90;;;;;;5018007;28;20034;-74
2023/06/26 00:50:40;;;;;;;9.90;5.50;;;21.30;99.90;;;;;;5017383;28;20022;-73
2023/06/26 00:53:05;;;;;;;8.82;6.07;;;21.40;99.90;;;;;;5017250;28;20029;-73
2023/06/26 00:55:31;;;;;;;11.15;7.70;;;21.30;99.90;;;;;;5016831;28;20034;-73
2023/06/26 00:57:57;;;;;;;19.10;10.60;;;21.20;99.90;;;;;;5017026;28;20079;-73
2023/06/26 01:00:23;;;;;;;11.55;6.80;;;21.10;99.90;;;;;;5017844;28;20154;-73
2023/06/26 01:02:48;;;;;;;14.77;6.55;;;21.10;99.90;;;;;;5017049;28;20033;-73
2023/06/26 01:05:20;;;;;;;8.80;5.68;;;21.00;99.90;;;;;;5017010;28;20029;-73
2023/06/26 01:07:50;;;;;;;11.38;5.68;;;21.10;99.90;;;;;;5017041;28;20053;-73
2023/06/26 01:10:16;;;;;;;10.25;6.35;;;21.00;99.90;;;;;;5017206;28;20029;-73
2023/06/26 01:12:42;;;;;;;10.23;6.53;;;21.00;99.90;;;;;;5016950;28;20018;-72
2023/06/26 01:15:08;;;;;;;8.25;6.05;;;20.90;99.90;;;;;;5016976;28;20025;-73
2023/06/26 01:17:36;;;;;;;11.40;6.05;;;20.80;99.90;;;;;;5017860;28;20025;-73
2023/06/26 01:20:08;;;;;;;7.57;5.85;;;20.70;99.90;;;;;;5016807;28;20022;-73
2023/06/26 01:22:44;;;;;;;;;;;20.70;99.90;;;;;;5018330;28;20036;-73
2023/06/26 01:25:17;;;;;;;9.30;6.20;;;20.70;99.90;;;;;;5017262;28;19905;-73
2023/06/26 01:27:48;;;;;;;8.10;5.60;;;20.70;99.90;;;;;;5016040;28;20030;-73
2023/06/26 01:30:16;;;;;;;11.60;6.38;;;20.60;99.90;;;;;;5017368;28;20026;-73
2023/06/26 01:32:43;;;;;;;8.77;5.95;;;20.60;99.90;;;;;;5016909;28;20037;-73
2023/06/26 01:35:09;;;;;;;11.48;6.05;;;20.70;99.90;;;;;;5016562;28;20022;-73
2023/06/26 01:37:35;;;;;;;14.75;5.78;;;20.60;99.90;;;;;;5017340;28;20112;-74
2023/06/26 01:40:00;;;;;;;8.85;5.30;;;20.60;99.90;;;;;;5017324;28;20118;-73
2023/06/26 01:42:27;;;;;;;11.00;6.50;;;20.50;99.90;;;;;;5017541;28;20061;-72
2023/06/26 01:44:55;;;;;;;8.55;6.05;;;20.50;99.90;;;;;;5016412;28;20068;-72
2023/06/26 01:47:25;;;;;;;8.13;6.00;;;20.50;99.90;;;;;;5017193;28;20026;-72
2023/06/26 01:50:02;;;;;;;9.07;6.13;;;20.40;99.90;;;;;;5017175;28;20061;-72
2023/06/26 01:52:51;;;;;;;9.18;6.43;;;20.30;99.90;;;;;;5016411;28;20022;-74
2023/06/26 01:55:29;;;;;;;9.98;6.00;;;20.10;99.90;;;;;;5016375;28;20045;-73
2023/06/26 01:57:58;;;;;;;9.70;6.13;;;20.10;99.90;;;;;;5017125;28;20029;-73
2023/06/26 02:00:24;;;;;;;7.05;5.45;;;20.10;99.90;;;;;;5016690;28;20030;-73
2023/06/26 02:02:50;;;;;;;8.35;6.38;;;20.10;99.90;;;;;;5016581;28;20026;-73
2023/06/26 02:05:15;;;;;;;9.77;6.40;;;20.10;99.90;;;;;;5016897;28;20096;-73
2023/06/26 02:07:41;;;;;;;9.05;6.20;;;20.10;99.90;;;;;;5016029;28;20072;-73
2023/06/26 02:10:07;;;;;;;9.30;5.55;;;20.10;99.90;;;;;;5016383;28;20018;-73
2023/06/26 02:12:35;;;;;;;7.13;5.78;;;20.10;99.90;;;;;;5016300;28;20140;-73
2023/06/26 02:15:01;;;;;;;8.93;6.03;;;20.10;99.90;;;;;;5016552;28;20028;-72
2023/06/26 02:17:27;;;;;;;9.32;6.25;;;20.20;99.90;;;;;;5016572;28;20026;-72
2023/06/26 02:19:52;;;;;;;10.00;5.65;;;20.30;99.90;;;;;;5016417;28;20033;-73
2023/06/26 02:22:18;;;;;;;8.95;6.28;;;20.30;99.90;;;;;;5016605;28;20088;-73
2023/06/26 02:24:44;;;;;;;7.72;5.55;;;20.30;99.90;;;;;;5016007;28;20033;-72
2023/06/26 02:27:10;;;;;;;10.30;6.15;;;20.10;99.90;;;;;;5016243;28;20026;-72
2023/06/26 02:29:36;;;;;;;7.88;6.10;;;20.10;99.90;;;;;;5016527;28;20037;-72
2023/06/26 02:32:02;;;;;;;13.60;6.50;;;20.10;99.90;;;;;;5015737;28;20026;-72
2023/06/26 02:34:27;;;;;;;8.90;5.70;;;20.10;99.90;;;;;;5016242;28;20021;-72
2023/06/26 02:36:56;;;;;;;8.40;5.60;;;20.00;99.90;;;;;;5016557;28;20056;-72
2023/06/26 02:39:22;;;;;;;7.82;5.85;;;19.90;99.90;;;;;;5018591;28;20021;-72
2023/06/26 02:41:48;;;;;;;10.40;6.35;;;19.90;99.90;;;;;;5020550;28;20022;-72
2023/06/26 02:44:14;;;;;;;11.45;6.50;;;19.90;99.90;;;;;;5019910;28;20056;-73
2023/06/26 02:46:40;;;;;;;10.45;6.63;;;19.80;99.90;;;;;;5019594;28;20026;-73
2023/06/26 02:49:06;;;;;;;8.35;6.22;;;19.70;99.90;;;;;;5019972;28;20026;-73
2023/06/26 02:51:33;;;;;;;9.02;5.70;;;19.70;99.90;;;;;;5019530;28;20080;-73
2023/06/26 02:56:29;;;;;;;7.90;6.10;;;19.70;99.90;;;;;;5038569;23;20061;-68
2023/06/26 02:58:56;;;;;;;9.02;6.45;;;19.90;99.90;;;;;;5036405;28;20113;-68
2023/06/26 03:01:22;;;;;;;7.85;6.13;;;19.90;99.90;;;;;;5019260;28;20025;-68
2023/06/26 03:03:47;;;;;;;10.10;6.15;;;19.80;99.90;;;;;;5019956;28;20021;-68
2023/06/26 03:06:13;;;;;;;9.77;6.50;;;19.60;99.90;;;;;;5020050;28;20068;-68
2023/06/26 03:08:40;;;;;;;9.20;6.28;;;19.50;99.90;;;;;;5019901;28;20083;-68
2023/06/26 03:11:06;;;;;;;8.70;6.55;;;19.40;99.90;;;;;;5019393;28;20041;-68
2023/06/26 03:13:33;;;;;;;8.43;6.05;;;19.40;99.90;;;;;;5019016;28;20026;-68
2023/06/26 03:15:59;;;;;;;9.93;6.38;;;19.30;99.90;;;;;;5018944;28;20114;-68
2023/06/26 03:18:25;;;;;;;10.68;6.28;;;19.30;99.90;;;;;;5019081;28;20105;-68
2023/06/26 03:20:53;;;;;;;8.75;5.97;;;19.50;99.90;;;;;;5018987;28;20030;-68
2023/06/26 03:23:20;;;;;;;10.55;6.70;;;19.40;99.90;;;;;;5019025;28;20026;-68
2023/06/26 03:25:45;;;;;;;9.10;6.03;;;19.40;99.90;;;;;;5018775;28;20026;-68
2023/06/26 03:28:11;;;;;;;8.52;6.22;;;19.30;99.90;;;;;;5019516;28;20076;-68
2023/06/26 03:30:37;;;;;;;9.80;5.97;;;19.30;99.90;;;;;;5018757;28;20037;-68
2023/06/26 03:33:02;;;;;;;9.15;6.53;;;19.40;99.90;;;;;;5019348;28;20024;-68
2023/06/26 03:35:28;;;;;;;11.50;6.68;;;19.50;99.90;;;;;;5018929;28;20026;-68
2023/06/26 03:37:54;;;;;;;10.85;5.85;;;19.40;99.90;;;;;;5019295;28;20024;-68
2023/06/26 03:40:19;;;;;;;8.85;5.97;;;19.30;99.90;;;;;;5018608;28;20022;-68
2023/06/26 03:42:45;;;;;;;8.77;6.03;;;19.30;99.90;;;;;;5018369;28;20030;-68
2023/06/26 03:45:11;;;;;;;8.18;6.15;;;19.20;99.90;;;;;;5018638;28;20074;-68
2023/06/26 03:47:36;;;;;;;9.20;6.10;;;19.30;99.90;;;;;;5018405;28;20022;-68
2023/06/26 03:50:02;;;;;;;9.50;5.65;;;19.40;99.90;;;;;;5017726;28;20059;-68
2023/06/26 03:52:30;;;;;;;9.13;6.40;;;19.20;99.90;;;;;;5018275;28;20172;-68
2023/06/26 03:54:57;;;;;;;11.70;6.00;;;19.20;99.90;;;;;;5018640;28;20088;-68
2023/06/26 03:57:22;;;;;;;8.10;6.15;;;19.10;99.90;;;;;;5018327;28;20029;-68
2023/06/26 03:59:48;;;;;;;10.45;6.00;;;19.00;99.90;;;;;;5018652;28;20026;-68
2023/06/26 04:02:13;;;;;;;8.93;6.28;;;19.10;99.90;;;;;;5018308;28;20022;-68
2023/06/26 04:04:39;;;;;;;10.43;6.10;;;19.10;99.90;;;;;;5018833;28;20026;-68
2023/06/26 04:07:05;;;;;;;9.32;5.90;;;19.10;99.90;;;;;;5017864;28;20026;-68
2023/06/26 04:09:30;;;;;;;8.77;6.35;;;19.20;99.90;;;;;;5019001;28;20033;-68
2023/06/26 04:11:56;;;;;;;9.15;5.88;;;19.20;99.90;;;;;;5019286;28;20030;-68
2023/06/26 04:14:21;;;;;;;9.30;5.93;;;19.20;99.90;;;;;;5017779;28;20022;-68
2023/06/26 04:16:47;;;;;;;12.32;6.47;;;19.30;99.90;;;;;;5018108;28;20026;-68
2023/06/26 04:19:13;;;;;;;9.57;6.57;;;19.20;99.90;;;;;;5018270;28;20053;-68
2023/06/26 04:21:39;;;;;;;9.40;6.13;;;19.40;99.90;;;;;;5017723;28;20026;-68
2023/06/26 04:24:05;;;;;;;10.05;6.53;;;19.40;99.90;;;;;;5017492;28;20120;-68
2023/06/26 04:26:30;;;;;;;12.13;6.75;;;19.60;99.90;;;;;;5017830;28;20036;-68
2023/06/26 04:28:56;;;;;;;13.40;6.47;;;19.50;99.90;;;;;;5018065;28;20025;-68
2023/06/26 04:31:22;;;;;;;9.65;5.93;;;19.40;99.90;;;;;;5017523;28;20026;-68
2023/06/26 04:33:51;;;;;;;11.27;6.68;;;19.40;99.90;;;;;;5018358;28;20049;-69
2023/06/26 04:36:17;;;;;;;9.00;6.40;;;19.40;99.90;;;;;;5018328;28;20025;-68
2023/06/26 04:38:43;;;;;;;8.60;6.18;;;19.40;99.90;;;;;;5017434;28;20026;-68
2023/06/26 04:41:09;;;;;;;9.50;6.55;;;19.30;99.90;;;;;;5018156;28;20021;-68
2023/06/26 04:43:34;;;;;;;10.98;7.13;;;19.40;99.90;;;;;;5017973;28;20026;-68
2023/06/26 04:46:01;;;;;;;12.68;6.70;;;19.40;99.90;;;;;;5017615;28;20030;-68
2023/06/26 04:48:27;;;;;;;9.90;6.65;;;19.40;99.90;;;;;;5017444;28;20030;-68
2023/06/26 04:50:54;;;;;;;14.10;6.78;;;19.40;99.90;;;;;;5018203;28;20045;-68
2023/06/26 04:53:21;;;;;;;10.13;7.18;;;19.40;99.90;;;;;;5017451;28;20018;-68
2023/06/26 04:55:46;;;;;;;9.25;6.35;;;19.50;99.90;;;;;;5010572;28;20112;-68
2023/06/26 04:58:12;;;;;;;10.55;6.93;;;19.50;99.90;;;;;;4998007;28;20026;-68
2023/06/26 05:00:37;;;;;;;14.35;6.78;;;19.50;99.90;;;;;;4997704;28;20072;-68
2023/06/26 05:03:03;;;;;;;13.15;6.75;;;19.60;99.90;;;;;;4998089;28;20037;-68
2023/06/26 05:05:29;;;;;;;10.77;6.72;;;19.80;99.90;;;;;;4997830;28;20054;-68
2023/06/26 05:07:55;;;;;;;12.20;7.47;;;19.70;99.90;;;;;;4997508;28;20030;-68
2023/06/26 05:10:21;;;;;;;12.25;7.28;;;19.70;99.90;;;;;;4997797;28;20081;-68
2023/06/26 05:12:47;;;;;;;11.15;6.88;;;19.60;99.90;;;;;;4997506;28;20023;-68
2023/06/26 05:15:12;;;;;;;12.20;6.93;;;19.70;99.90;;;;;;4997280;28;20025;-68
2023/06/26 05:17:38;;;;;;;9.90;6.43;;;19.90;99.90;;;;;;4997399;28;20034;-68
2023/06/26 05:20:05;;;;;;;12.60;7.43;;;20.00;99.90;;;;;;4997402;28;20030;-68
2023/06/26 05:22:32;;;;;;;11.65;7.47;;;20.10;99.90;;;;;;4997054;28;20057;-68
2023/06/26 05:25:00;;;;;;;10.02;7.38;;;20.20;99.90;;;;;;4997307;28;20033;-68
2023/06/26 05:27:26;;;;;;;10.48;7.00;;;20.10;99.90;;;;;;4996828;28;20053;-68
2023/06/26 05:29:52;;;;;;;9.93;6.95;;;20.30;99.90;;;;;;4997140;28;20026;-68
2023/06/26 05:32:18;;;;;;;11.80;6.85;;;20.50;99.90;;;;;;4997194;28;20022;-68
2023/06/26 05:34:53;;;;;;;10.00;7.32;;;20.70;99.90;;;;;;4997188;28;20053;-68
2023/06/26 05:37:21;;;;;;;10.65;7.07;;;20.70;99.90;;;;;;4997848;28;20037;-68
2023/06/26 05:40:03;;;;;;;11.20;7.30;;;20.80;99.90;;;;;;4996732;28;20026;-68
2023/06/26 05:42:29;;;;;;;10.75;7.65;;;20.60;99.90;;;;;;4997821;28;20117;-68
2023/06/26 05:44:55;;;;;;;13.25;7.63;;;20.70;99.90;;;;;;4996608;28;20030;-68
2023/06/26 05:47:21;;;;;;;11.85;7.15;;;20.60;99.90;;;;;;4997218;28;20034;-68
2023/06/26 05:49:46;;;;;;;10.95;7.13;;;20.60;99.90;;;;;;4997419;28;20023;-68
2023/06/26 05:52:12;;;;;;;11.63;7.22;;;20.80;99.90;;;;;;4997486;28;20022;-68
2023/06/26 05:54:38;;;;;;;14.45;8.55;;;20.90;99.90;;;;;;4996607;28;20062;-68
2023/06/26 05:57:04;;;;;;;13.65;8.50;;;21.00;99.90;;;;;;4996881;28;20066;-68
2023/06/26 05:59:32;;;;;;;12.50;7.40;;;21.20;99.90;;;;;;4996673;28;20093;-68
2023/06/26 06:01:58;;;;;;;19.10;7.65;;;21.20;99.90;;;;;;4996823;28;20118;-68
2023/06/26 06:04:23;;;;;;;10.88;7.15;;;21.20;99.90;;;;;;4996535;28;20058;-68
2023/06/26 06:06:49;;;;;;;12.23;7.28;;;21.40;99.90;;;;;;4997598;28;20027;-68
2023/06/26 06:09:15;;;;;;;11.13;7.80;;;21.60;99.90;;;;;;4996549;28;20077;-69
2023/06/26 06:11:40;;;;;;;11.90;8.18;;;21.60;99.90;;;;;;4996903;28;20015;-68
2023/06/26 06:14:06;;;;;;;12.25;7.57;;;21.40;99.90;;;;;;4998837;28;20045;-68
2023/06/26 06:16:31;;;;;;;13.05;7.18;;;21.30;99.90;;;;;;5000741;28;20023;-68
2023/06/26 06:18:57;;;;;;;10.07;7.32;;;21.40;99.90;;;;;;5000902;28;20018;-68
2023/06/26 06:21:23;;;;;;;10.60;6.25;;;21.50;99.90;;;;;;5001378;28;20023;-68
2023/06/26 06:23:48;;;;;;;9.27;6.38;;;21.60;99.90;;;;;;5000589;28;20053;-69
2023/06/26 06:26:14;;;;;;;10.10;6.97;;;21.90;99.90;;;;;;5000378;28;20069;-68
2023/06/26 06:28:39;;;;;;;13.50;6.50;;;22.10;99.90;;;;;;5000193;28;20018;-69
2023/06/26 06:31:05;;;;;;;13.07;6.53;;;22.30;99.90;;;;;;5000464;28;20113;-68
2023/06/26 06:33:30;;;;;;;14.27;6.85;;;22.30;99.90;;;;;;5000815;28;20093;-68
2023/06/26 06:35:56;;;;;;;14.18;6.63;;;22.50;99.90;;;;;;5007019;28;20018;-69
2023/06/26 06:38:22;;;;;;;13.65;6.95;;;22.60;99.90;;;;;;5020538;28;20029;-69
2023/06/26 06:40:47;;;;;;;10.30;6.88;;;22.70;99.90;;;;;;5020380;28;20025;-68
2023/06/26 06:43:13;;;;;;;14.75;6.28;;;22.80;99.90;;;;;;5019568;28;20022;-69
2023/06/26 06:45:39;;;;;;;11.77;7.65;;;22.90;99.90;;;;;;5020250;28;20025;-68
2023/06/26 06:48:05;;;;;;;12.02;6.20;;;22.90;99.90;;;;;;5019717;28;20220;-69
2023/06/26 06:50:30;;;;;;;13.75;7.00;;;22.90;99.90;;;;;;5020361;28;20045;-69
2023/06/26 06:52:56;;;;;;;9.05;6.43;;;23.00;99.90;;;;;;5020196;28;20018;-69
2023/06/26 06:55:22;;;;;;;11.07;6.78;;;23.10;99.90;;;;;;5019475;28;20057;-68
2023/06/26 06:57:48;;;;;;;8.70;6.10;;;23.10;99.90;;;;;;5019289;28;20036;-69
2023/06/26 07:00:14;;;;;;;11.02;7.35;;;23.00;99.90;;;;;;5019296;28;20061;-68
2023/06/26 07:02:42;;;;;;;10.23;6.65;;;23.00;99.90;;;;;;5019421;28;20025;-69
2023/06/26 07:05:09;;;;;;;8.35;5.90;;;23.20;99.90;;;;;;5019983;28;20025;-69
2023/06/26 07:07:36;;;;;;;10.95;6.43;;;23.10;99.90;;;;;;5019189;28;20049;-69
2023/06/26 07:10:08;;;;;;;10.05;7.18;;;23.20;99.90;;;;;;5019362;28;20024;-69
2023/06/26 07:12:34;;;;;;;14.10;6.40;;;23.20;99.90;;;;;;5019835;28;20022;-69
2023/06/26 07:15:02;;;;;;;13.68;5.95;;;23.20;99.90;;;;;;5015473;28;20034;-69
2023/06/26 07:17:28;;;;;;;10.13;6.20;;;23.20;99.90;;;;;;4999377;28;20109;-69
2023/06/26 07:19:53;;;;;;;7.13;5.80;;;23.20;99.90;;;;;;5000111;28;20072;-69
2023/06/26 07:22:26;;;;;;;9.15;6.72;;;23.50;99.90;;;;;;5000124;28;20069;-68
2023/06/26 07:24:52;;;;;;;10.00;5.75;;;23.70;99.90;;;;;;4999914;28;20018;-69
2023/06/26 07:27:19;;;;;;;8.18;5.90;;;23.80;99.90;;;;;;4999354;28;20097;-69
2023/06/26 07:29:45;;;;;;;8.50;6.07;;;23.70;99.90;;;;;;5007456;28;20017;-69
2023/06/26 07:32:11;;;;;;;9.43;5.93;;;24.00;99.90;;;;;;5018830;28;20117;-69
2023/06/26 07:34:37;;;;;;;16.83;6.05;;;24.20;99.90;;;;;;5006063;28;20030;-69
2023/06/26 07:37:03;;;;;;;9.40;5.95;;;24.40;99.90;;;;;;4998879;28;20030;-69
2023/06/26 07:39:29;;;;;;;10.02;5.88;;;24.50;99.90;;;;;;4998971;28;20026;-68
2023/06/26 07:41:54;;;;;;;9.63;6.13;;;24.60;99.90;;;;;;5011695;28;20049;-69
2023/06/26 07:44:20;;;;;;;16.77;5.40;;;24.60;99.90;;;;;;5018823;28;20029;-69
2023/06/26 07:46:45;;;;;;;8.40;5.93;;;24.70;99.90;;;;;;5006287;28;20069;-69
2023/06/26 07:49:11;;;;;;;9.05;5.50;;;24.80;99.90;;;;;;4998570;28;20053;-69
2023/06/26 07:51:37;;;;;;;7.88;5.72;;;24.90;99.90;;;;;;4998407;28;20022;-69
2023/06/26 07:54:03;;;;;;;12.50;6.07;;;24.90;99.90;;;;;;4998693;28;20049;-69
2023/06/26 07:56:29;;;;;;;11.43;6.28;;;24.90;99.90;;;;;;4998690;28;20045;-69
2023/06/26 07:58:57;;;;;;;9.90;6.57;;;25.00;99.90;;;;;;5011067;28;20026;-69
2023/06/26 08:01:24;;;;;;;9.68;5.68;;;25.10;99.90;;;;;;5018737;28;20025;-69
2023/06/26 08:03:49;;;;;;;8.65;5.57;;;25.20;99.90;;;;;;5018297;28;20076;-69
2023/06/26 08:06:15;;;;;;;9.48;5.00;;;25.40;99.90;;;;;;5017954;28;20021;-68
2023/06/26 08:08:41;;;;;;;9.55;6.28;;;25.60;99.90;;;;;;5018623;28;20022;-68
2023/06/26 08:11:06;;;;;;;8.63;6.05;;;25.70;99.90;;;;;;5017942;28;20032;-69
2023/06/26 08:13:32;;;;;;;8.60;5.78;;;25.70;99.90;;;;;;5017957;28;20033;-68
2023/06/26 08:15:57;;;;;;;7.90;5.70;;;25.80;99.90;;;;;;5018068;28;20026;-68
2023/06/26 08:18:23;;;;;;;7.80;5.53;;;26.00;99.90;;;;;;5017800;28;20037;-68
2023/06/26 08:20:48;;;;;;;9.40;5.53;;;26.00;99.90;;;;;;5018104;28;20084;-68
2023/06/26 08:23:14;;;;;;;9.38;5.90;;;26.00;99.90;;;;;;5018002;28;20026;-68
2023/06/26 08:25:39;;;;;;;8.55;5.22;;;26.10;99.90;;;;;;5017980;28;20034;-68
2023/06/26 08:28:05;;;;;;;9.30;6.25;;;26.00;99.90;;;;;;5018440;28;20030;-68
2023/06/26 08:30:32;;;;;;;8.48;5.85;;;26.00;99.90;;;;;;5013615;28;20080;-68
2023/06/26 08:32:57;;;;;;;7.95;4.85;;;26.00;99.90;;;;;;5016697;28;20025;-68
2023/06/26 08:35:23;;;;;;;7.25;5.50;;;26.00;99.90;;;;;;5017358;28;20022;-68
2023/06/26 08:37:49;;;;;;;8.85;5.50;;;26.00;99.90;;;;;;5017199;28;20025;-69
2023/06/26 08:40:20;;;;;;;10.82;5.40;;;26.10;99.90;;;;;;5017439;28;20046;-68
2023/06/26 08:42:46;;;;;;;10.77;5.88;;;26.20;99.90;;;;;;5017246;28;20032;-68
2023/06/26 08:45:12;;;;;;;6.95;5.03;;;26.30;99.90;;;;;;5017492;28;20025;-68
2023/06/26 08:47:39;;;;;;;8.23;5.32;;;26.20;99.90;;;;;;5016898;28;20026;-68
2023/06/26 08:50:10;;;;;;;9.18;5.32;;;26.30;99.90;;;;;;5017224;28;20026;-68
2023/06/26 08:52:41;;;;;;;13.27;5.65;;;26.30;99.90;;;;;;5017590;28;20034;-69
2023/06/26 08:55:09;;;;;;;8.38;5.38;;;26.30;99.90;;;;;;5017042;28;20045;-69
2023/06/26 08:57:36;;;;;;;7.05;5.80;;;26.40;99.90;;;;;;5017356;28;20056;-68
2023/06/26 09:00:03;;;;;;;7.90;5.82;;;26.50;99.90;;;;;;5017508;28;20052;-69
2023/06/26 09:02:28;;;;;;;8.27;4.93;;;26.60;99.90;;;;;;5017123;28;20021;-69
2023/06/26 09:04:54;;;;;;;10.02;5.88;;;26.70;99.90;;;;;;5017008;28;20032;-69
2023/06/26 09:07:20;;;;;;;9.95;5.80;;;26.90;99.90;;;;;;5016895;28;20109;-69
2023/06/26 09:09:46;;;;;;;11.48;5.80;;;27.00;99.90;;;;;;5017162;28;20052;-70
2023/06/26 09:12:11;;;;;;;9.55;5.80;;;27.20;99.90;;;;;;5017285;28;20022;-70
2023/06/26 09:14:38;;;;;;;9.95;5.70;;;27.20;99.90;;;;;;5016982;28;20029;-70
2023/06/26 09:17:04;;;;;;;8.68;5.78;;;27.20;99.90;;;;;;5016948;28;20168;-70
2023/06/26 09:19:29;;;;;;;10.77;5.80;;;27.20;99.90;;;;;;5016772;28;20064;-70
2023/06/26 09:21:55;;;;;;;7.63;5.47;;;27.30;99.90;;;;;;5016715;28;20037;-70
2023/06/26 09:24:22;;;;;;;10.70;5.55;;;27.40;99.90;;;;;;5012868;28;20029;-70
2023/06/26 09:26:50;;;;;;;9.15;5.68;;;27.50;99.90;;;;;;4997216;28;20029;-69
2023/06/26 09:29:17;;;;;;;8.18;5.60;;;27.60;99.90;;;;;;4996808;28;20034;-69
2023/06/26 09:31:44;;;;;;;8.60;5.50;;;27.70;99.90;;;;;;4997179;28;20022;-70
2023/06/26 09:34:10;;;;;;;8.93;5.90;;;27.60;99.90;;;;;;4996896;28;20023;-70
2023/06/26 09:36:36;;;;;;;7.95;4.90;;;27.60;99.90;;;;;;4997174;28;20023;-69
2023/06/26 09:39:10;;;;;;;15.82;5.10;;;27.70;99.90;;;;;;4997101;28;20046;-70
2023/06/26 09:41:37;;;;;;;9.95;5.57;;;27.80;99.90;;;;;;5015003;28;20026;-69
2023/06/26 09:44:04;;;;;;;8.25;5.20;;;27.80;99.90;;;;;;5016554;28;20030;-69
2023/06/26 09:46:30;;;;;;;9.25;5.47;;;27.90;99.90;;;;;;5016581;28;20022;-69
2023/06/26 09:49:12;;;;;;;9.93;5.53;;;28.00;99.90;;;;;;5015373;28;20065;-69
2023/06/26 09:51:40;;;;;;;7.30;4.70;;;28.10;99.90;;;;;;5016751;28;20045;-69
2023/06/26 09:54:07;;;;;;;10.43;5.25;;;28.10;99.90;;;;;;5016353;28;20049;-69
2023/06/26 09:56:33;;;;;;;6.05;4.68;;;28.10;99.90;;;;;;5016348;28;20022;-70
2023/06/26 09:59:02;;;;;;;9.32;5.32;;;27.90;99.90;;;;;;5016237;28;20029;-70
2023/06/26 10:01:28;;;;;;;6.07;4.53;;;27.90;99.90;;;;;;5016380;28;20019;-70
2023/06/26 10:03:56;;;;;;;14.00;5.55;;;27.70;99.90;;;;;;5016292;28;20026;-70
2023/06/26 10:06:46;;;;;;;8.25;4.38;;;27.60;99.90;;;;;;5017161;28;20018;-70
2023/06/26 10:09:14;;;;;;;11.77;5.80;;;27.60;99.90;;;;;;5016206;28;20026;-70
2023/06/26 10:12:07;;;;;;;8.38;4.53;;;27.50;99.90;;;;;;5016242;28;20026;-70
2023/06/26 10:14:39;;;;;;;6.53;5.40;;;27.50;99.90;;;;;;5015860;28;20022;-70
2023/06/26 10:17:09;;;;;;;7.63;4.70;;;27.50;99.90;;;;;;5016582;28;20033;-71
2023/06/26 10:19:36;;;;;;;8.25;4.38;;;27.40;99.90;;;;;;5016081;28;20084;-71
2023/06/26 10:22:03;;;;;;;8.25;4.25;;;27.60;99.90;;;;;;5015892;28;20030;-71
2023/06/26 10:24:32;;;;;;;6.88;3.83;;;27.70;99.90;;;;;;5006241;28;20030;-70
2023/06/26 10:27:04;;;;;;;8.20;3.88;;;27.90;99.90;;;;;;4996138;28;20030;-71
2023/06/26 10:29:31;;;;;;;6.53;3.92;;;28.00;99.90;;;;;;4996396;28;20077;-71
2023/06/26 10:31:59;;;;;;;7.40;4.57;;;27.90;99.90;;;;;;5023002;23;20072;-74
2023/06/26 10:34:25;;;;;;;6.25;4.10;;;27.90;99.90;;;;;;4997183;28;20054;-73
2023/06/26 10:37:04;;;;;;;6.13;4.10;;;28.00;99.90;;;;;;5019068;28;20029;-73
2023/06/26 10:39:49;;;;;;;9.80;4.97;;;28.40;99.90;;;;;;5014628;28;20022;-74
2023/06/26 10:42:16;;;;;;;5.60;4.15;;;28.70;99.90;;;;;;5017087;28;20022;-74
2023/06/26 10:44:43;;;;;;;11.05;5.32;;;29.00;99.90;;;;;;5015820;28;20033;-74
2023/06/26 10:47:10;;;;;;;6.35;5.10;;;29.70;99.90;;;;;;5016245;28;20030;-74
2023/06/26 10:49:39;;;;;;;9.13;4.60;;;30.30;99.90;;;;;;5015523;28;20026;-74
2023/06/26 10:52:05;;;;;;;11.02;4.85;;;30.50;99.90;;;;;;5016424;28;20026;-74
2023/06/26 10:54:32;;;;;;;10.20;5.50;;;30.50;99.90;;;;;;5015545;28;20025;-74
2023/06/26 10:56:58;;;;;;;8.48;4.65;;;30.70;99.90;;;;;;5016363;28;20025;-74
2023/06/26 10:59:28;;;;;;;8.82;5.28;;;30.60;99.90;;;;;;5001972;28;20085;-74
2023/06/26 11:02:02;;;;;;;9.80;4.20;;;31.00;99.90;;;;;;4999645;28;20034;-74
2023/06/26 11:04:47;;;;;;;5.55;3.92;;;30.90;99.90;;;;;;5015700;28;20029;-74
2023/06/26 11:07:20;;;;;;;8.35;4.00;;;31.60;99.90;;;;;;5007883;28;20032;-74
2023/06/26 11:09:55;;;;;;;5.78;3.85;;;32.20;99.90;;;;;;5008233;28;20026;-74
2023/06/26 11:12:40;;;;;;;5.18;4.07;;;32.40;99.60;;;;;;5019126;28;20018;-74
2023/06/26 11:15:09;;;;;;;9.18;4.43;;;32.20;98.60;;;;;;5000187;28;20022;-74
2023/06/26 11:17:36;;;;;;;8.18;3.83;;;32.30;96.40;;;;;;5000205;28;20026;-74
2023/06/26 11:20:04;;;;;;;6.18;4.00;;;32.10;96.30;;;;;;4999083;28;20084;-74
2023/06/26 11:22:31;;;;;;;6.57;3.70;;;32.00;95.40;;;;;;5008156;28;20084;-74
2023/06/26 11:24:59;;;;;;;9.13;4.57;;;31.60;96.00;;;;;;5018662;28;20098;-74
2023/06/26 11:27:30;;;;;;;7.20;4.35;;;31.70;96.60;;;;;;5018241;28;20026;-74
2023/06/26 11:29:55;;;;;;;7.72;4.63;;;31.70;96.50;;;;;;5016489;28;20057;-74
2023/06/26 11:32:21;;;;;;;11.07;4.90;;;31.70;96.80;;;;;;5018580;28;20038;-74
2023/06/26 11:34:48;;;;;;;5.60;5.00;;;32.60;95.60;;;;;;5018587;28;20028;-74
2023/06/26 11:37:17;;;;;;;7.30;4.82;;;33.60;93.30;;;;;;5018669;28;20116;-74
2023/06/26 11:39:42;;;;;;;7.32;5.20;;;34.00;91.80;;;;;;5018394;28;20029;-74
2023/06/26 11:42:10;;;;;;;7.68;4.68;;;33.40;92.80;;;;;;5015762;28;20025;-74
2023/06/26 11:44:41;;;;;;;5.07;4.53;;;33.30;92.20;;;;;;5029549;28;20121;-74
2023/06/26 11:47:07;;;;;;;6.60;4.18;;;34.30;89.90;;;;;;5014750;28;20129;-74
2023/06/26 11:49:33;;;;;;;6.63;4.53;;;34.30;90.00;;;;;;5013813;28;20112;-74
2023/06/26 11:51:58;;;;;;;11.90;5.60;;;34.00;89.30;;;;;;5014049;28;20025;-75
2023/06/26 11:54:29;;;;;;;7.63;4.47;;;33.60;89.60;;;;;;5013908;28;20026;-75
2023/06/26 11:56:59;;;;;;;10.18;5.43;;;33.90;88.10;;;;;;5014046;28;20022;-73
2023/06/26 11:59:35;;;;;;;9.00;5.20;;;33.90;87.80;;;;;;5017070;28;20053;-73
2023/06/26 12:02:05;;;;;;;9.07;5.38;;;33.90;84.80;;;;;;5016492;28;20018;-75
2023/06/26 12:04:31;;;;;;;5.90;4.90;;;33.10;87.40;;;;;;5017745;28;20014;-74
2023/06/26 12:06:57;;;;;;;7.18;5.40;;;33.50;86.00;;;;;;5015635;28;20084;-74
2023/06/26 12:09:23;;;;;;;10.85;5.50;;;33.50;87.00;;;;;;5017942;28;20049;-74
2023/06/26 12:11:55;;;;;;;6.72;4.53;;;33.40;86.10;;;;;;5017193;28;20022;-74
2023/06/26 12:14:23;;;;;;;6.25;4.82;;;32.80;87.30;;;;;;5017917;28;20036;-74
2023/06/26 12:16:48;;;;;;;8.90;5.68;;;32.50;87.30;;;;;;5017563;28;20025;-75
2023/06/26 12:19:14;;;;;;;8.25;4.68;;;32.60;86.20;;;;;;5017815;28;20025;-74
2023/06/26 12:21:46;;;;;;;6.97;4.70;;;33.10;84.70;;;;;;5017606;28;20022;-74
2023/06/26 12:24:20;;;;;;;7.53;4.80;;;33.30;83.30;;;;;;5018663;28;20093;-75
2023/06/26 12:26:51;;;;;;;8.20;4.82;;;32.90;82.80;;;;;;5017571;28;20022;-74
2023/06/26 12:29:51;;;;;;;6.82;5.28;;;32.50;84.40;;;;;;5018453;28;20046;-74
2023/06/26 12:32:17;;;;;;;4.53;4.03;;;32.60;85.10;;;;;;4997851;28;20030;-74
2023/06/26 12:34:48;;;;;;;8.32;4.40;;;32.70;83.20;;;;;;4998870;28;20037;-74
2023/06/26 12:37:14;;;;;;;7.03;4.45;;;32.50;83.00;;;;;;4998087;28;20026;-74
2023/06/26 12:39:49;;;;;;;6.10;3.85;;;32.20;83.10;;;;;;4998228;28;20023;-74
2023/06/26 12:42:36;;;;;;;6.20;3.60;;;31.70;82.60;;;;;;4998583;28;20054;-74
2023/06/26 12:45:11;;;;;;;13.70;4.07;;;31.50;82.90;;;;;;5013573;28;20034;-74
2023/06/26 12:47:38;;;;;;;8.02;3.13;;;31.50;83.20;;;;;;5007976;28;20036;-74